createdAt,value
2022-12-06T00:00:51.141Z,101282.97
2022-12-06T00:03:18.646Z,101288.16
2022-12-06T00:05:46.602Z,101293.81
2022-12-06T00:08:14.170Z,101300.53
2022-12-06T00:10:41.717Z,101305.44
2022-12-06T00:13:09.208Z,101302.72
2022-12-06T00:15:38.282Z,101290.31
2022-12-06T00:18:05.887Z,101303.41
2022-12-06T00:20:33.382Z,101281.94
2022-12-06T00:23:00.890Z,101284.81
2022-12-06T00:25:28.339Z,101302.19
2022-12-06T00:27:55.881Z,101301.91
2022-12-06T00:30:23.389Z,101294.78
2022-12-06T00:32:52.243Z,101305.28
2022-12-06T00:35:19.708Z,101302.09
2022-12-06T00:37:47.195Z,101311.53
2022-12-06T00:40:14.775Z,101303.13
2022-12-06T00:42:42.305Z,101318.19
2022-12-06T00:45:10.048Z,101311.34
2022-12-06T00:47:37.550Z,101310.50
2022-12-06T00:50:07.415Z,101311.69
2022-12-06T00:52:34.934Z,101308.72
2022-12-06T00:55:02.386Z,101314.50
2022-12-06T00:57:29.834Z,101310.19
2022-12-06T00:59:57.541Z,101311.03
2022-12-06T01:02:25.236Z,101311.97
2022-12-06T01:04:52.757Z,101297.16
2022-12-06T01:07:21.653Z,101302.50
2022-12-06T01:09:49.127Z,101291.44
2022-12-06T01:12:16.614Z,101290.06
2022-12-06T01:14:44.105Z,101299.50
2022-12-06T01:17:11.667Z,101289.06
2022-12-06T01:19:39.214Z,101294.16
2022-12-06T01:22:06.671Z,101287.88
2022-12-06T01:24:35.564Z,101285.25
2022-12-06T01:27:03.062Z,101294.41
2022-12-06T01:29:30.559Z,101283.56
2022-12-06T01:31:58.057Z,101277.66
2022-12-06T01:34:25.519Z,101269.78
2022-12-06T01:36:52.976Z,101288.97
2022-12-06T01:39:20.559Z,101281.97
2022-12-06T01:41:49.372Z,101278.91
2022-12-06T01:44:35.336Z,101276.38
2022-12-06T01:47:02.767Z,101286.72
2022-12-06T01:49:30.860Z,101289.28
2022-12-06T01:51:58.995Z,101273.84
2022-12-06T01:54:26.452Z,101267.59
2022-12-06T01:56:55.463Z,101276.13
2022-12-06T01:59:23.084Z,101283.00
2022-12-06T02:01:50.681Z,101282.13
2022-12-06T02:04:18.307Z,101268.44
2022-12-06T02:06:45.764Z,101293.84
2022-12-06T02:09:13.517Z,101286.28
2022-12-06T02:11:41.512Z,101280.31
2022-12-06T02:14:11.036Z,101270.50
2022-12-06T02:16:42.536Z,101254.56
2022-12-06T02:19:14.868Z,101273.78
2022-12-06T02:21:43.674Z,101275.00
2022-12-06T02:24:20.289Z,101286.25
2022-12-06T02:26:48.406Z,101278.63
2022-12-06T02:29:40.155Z,101289.84
2022-12-06T02:32:09.873Z,101292.47
2022-12-06T02:34:40.251Z,101282.53
2022-12-06T02:37:08.944Z,101269.53
2022-12-06T02:39:37.237Z,101266.59
2022-12-06T02:42:05.493Z,101273.75
2022-12-06T02:44:34.300Z,101272.13
2022-12-06T02:47:01.816Z,101260.38
2022-12-06T02:49:32.551Z,101272.81
2022-12-06T02:52:00.079Z,101266.88
2022-12-06T02:54:27.648Z,101256.78
2022-12-06T02:56:55.114Z,101265.09
2022-12-06T02:59:22.609Z,101265.75
2022-12-06T03:01:50.684Z,101261.84
2022-12-06T03:04:46.579Z,101253.66
2022-12-06T03:07:20.729Z,101255.16
2022-12-06T03:09:54.195Z,101262.41
2022-12-06T03:12:24.939Z,101261.75
2022-12-06T03:14:55.573Z,101265.28
2022-12-06T03:17:24.133Z,101268.84
2022-12-06T03:19:52.627Z,101258.78
2022-12-06T03:22:22.145Z,101259.06
2022-12-06T03:24:49.653Z,101259.78
2022-12-06T03:27:17.832Z,101261.06
2022-12-06T03:29:46.631Z,101260.84
2022-12-06T03:32:14.392Z,101264.66
2022-12-06T03:34:42.342Z,101258.56
2022-12-06T03:37:10.489Z,101252.44
2022-12-06T03:39:40.360Z,101249.56
2022-12-06T03:42:08.311Z,101258.16
2022-12-06T03:44:35.836Z,101256.94
2022-12-06T03:47:04.151Z,101244.59
2022-12-06T03:49:32.925Z,101239.44
2022-12-06T03:52:00.412Z,101235.13
2022-12-06T03:54:27.859Z,101243.03
2022-12-06T03:56:56.843Z,101239.00
2022-12-06T03:59:24.297Z,101238.91
2022-12-06T04:01:51.846Z,101244.78
2022-12-06T04:04:19.438Z,101234.13
2022-12-06T04:06:47.029Z,101243.94
2022-12-06T04:09:32.128Z,101250.03
2022-12-06T04:12:00.976Z,101234.16
2022-12-06T04:14:32.389Z,101226.97
2022-12-06T04:17:17.163Z,101236.59
2022-12-06T04:19:49.371Z,101235.88
2022-12-06T04:22:36.715Z,101238.53
2022-12-06T04:25:04.260Z,101237.19
2022-12-06T04:27:50.584Z,101244.16
2022-12-06T04:30:35.512Z,101234.28
2022-12-06T04:33:20.292Z,101243.88
2022-12-06T04:36:05.216Z,101246.44
2022-12-06T04:38:42.001Z,101240.00
2022-12-06T04:41:09.575Z,101246.78
2022-12-06T04:43:43.459Z,101237.88
2022-12-06T04:46:11.296Z,101231.28
2022-12-06T04:48:38.844Z,101226.84
2022-12-06T04:51:06.532Z,101242.53
2022-12-06T04:53:34.108Z,101227.25
2022-12-06T04:56:01.647Z,101231.09
2022-12-06T04:58:29.132Z,101222.56
2022-12-06T05:00:58.064Z,101225.41
2022-12-06T05:03:25.681Z,101237.44
2022-12-06T05:05:53.207Z,101236.38
2022-12-06T05:08:20.753Z,101233.88
2022-12-06T05:10:48.882Z,101231.69
2022-12-06T05:13:16.681Z,101230.25
2022-12-06T05:15:49.971Z,101230.06
2022-12-06T05:18:18.818Z,101229.59
2022-12-06T05:20:46.451Z,101229.16
2022-12-06T05:23:14.102Z,101224.38
2022-12-06T05:25:41.958Z,101215.63
2022-12-06T05:28:10.436Z,101220.97
2022-12-06T05:30:37.948Z,101218.44
2022-12-06T05:33:05.440Z,101212.81
2022-12-06T05:35:34.342Z,101204.50
2022-12-06T05:38:01.823Z,101208.22
2022-12-06T05:40:29.325Z,101222.22
2022-12-06T05:42:56.872Z,101219.41
2022-12-06T05:45:24.832Z,101217.91
2022-12-06T05:47:52.341Z,101222.66
2022-12-06T05:50:19.903Z,101229.75
2022-12-06T05:52:48.776Z,101216.53
2022-12-06T05:55:16.444Z,101215.44
2022-12-06T05:57:47.191Z,101224.63
2022-12-06T06:00:16.079Z,101234.66
2022-12-06T06:02:43.789Z,101220.56
2022-12-06T06:05:11.322Z,101228.63
2022-12-06T06:07:38.822Z,101219.03
2022-12-06T06:10:08.816Z,101216.97
2022-12-06T06:12:36.348Z,101223.06
2022-12-06T06:15:06.972Z,101214.66
2022-12-06T06:17:34.512Z,101222.50
2022-12-06T06:20:05.514Z,101221.97
2022-12-06T06:22:33.928Z,101216.66
2022-12-06T06:25:01.536Z,101223.03
2022-12-06T06:27:33.747Z,101218.03
2022-12-06T06:30:01.539Z,101227.31
2022-12-06T06:32:29.250Z,101225.00
2022-12-06T06:34:56.757Z,101221.97
2022-12-06T06:37:24.244Z,101223.84
2022-12-06T06:39:51.752Z,101226.78
2022-12-06T06:42:19.219Z,101228.91
2022-12-06T06:44:48.060Z,101237.69
2022-12-06T06:47:15.620Z,101230.75
2022-12-06T06:49:43.127Z,101237.88
2022-12-06T06:52:10.639Z,101241.72
2022-12-06T06:54:38.178Z,101235.81
2022-12-06T06:57:05.999Z,101237.75
2022-12-06T06:59:33.485Z,101238.44
2022-12-06T07:02:02.450Z,101242.50
2022-12-06T07:04:30.157Z,101243.13
2022-12-06T07:06:57.784Z,101234.56
2022-12-06T07:09:25.297Z,101233.00
2022-12-06T07:11:52.830Z,101241.00
2022-12-06T07:14:20.272Z,101242.28
2022-12-06T07:16:47.794Z,101235.19
2022-12-06T07:19:16.720Z,101233.94
2022-12-06T07:21:44.210Z,101233.03
2022-12-06T07:24:11.697Z,101233.06
2022-12-06T07:26:39.191Z,101233.16
2022-12-06T07:29:06.664Z,101243.06
2022-12-06T07:31:35.437Z,101235.81
2022-12-06T07:34:03.166Z,101231.00
2022-12-06T07:36:32.478Z,101230.56
2022-12-06T07:39:00.459Z,101228.91
2022-12-06T07:41:46.349Z,101232.44
2022-12-06T07:44:31.801Z,101226.84
2022-12-06T07:46:59.270Z,101231.66
2022-12-06T07:49:26.757Z,101227.84
2022-12-06T07:51:55.969Z,101218.50
2022-12-06T07:54:24.158Z,101237.75
2022-12-06T07:56:51.721Z,101227.34
2022-12-06T07:59:19.304Z,101233.75
2022-12-06T08:01:46.907Z,101228.06
2022-12-06T08:04:14.521Z,101238.06
2022-12-06T08:06:42.044Z,101237.34
2022-12-06T08:09:11.000Z,101239.84
2022-12-06T08:11:38.525Z,101246.19
2022-12-06T08:14:06.134Z,101257.91
2022-12-06T08:16:33.640Z,101246.91
2022-12-06T08:19:01.793Z,101248.84
2022-12-06T08:21:29.395Z,101235.00
2022-12-06T08:23:57.049Z,101247.75
2022-12-06T08:26:25.895Z,101231.13
2022-12-06T08:28:53.451Z,101243.19
2022-12-06T08:31:21.824Z,101242.16
2022-12-06T08:33:49.350Z,101236.50
2022-12-06T08:36:17.682Z,101240.47
2022-12-06T08:38:45.235Z,101250.66
2022-12-06T08:41:26.741Z,101226.94
2022-12-06T08:43:55.704Z,101244.13
2022-12-06T08:46:23.227Z,101248.34
2022-12-06T08:48:50.848Z,101248.13
2022-12-06T08:51:18.371Z,101229.38
2022-12-06T08:53:45.811Z,101230.38
2022-12-06T08:56:13.368Z,101250.00
2022-12-06T08:58:40.874Z,101240.94
2022-12-06T09:01:13.717Z,101226.97
2022-12-06T09:03:41.176Z,101240.91
2022-12-06T09:06:09.092Z,101240.25
2022-12-06T09:08:36.665Z,101232.53
2022-12-06T09:11:04.537Z,101227.75
2022-12-06T09:13:32.038Z,101240.84
2022-12-06T09:15:59.649Z,101234.69
2022-12-06T09:18:28.577Z,101240.38
2022-12-06T09:20:56.188Z,101232.78
2022-12-06T09:23:23.667Z,101238.84
2022-12-06T09:25:51.124Z,101242.63
2022-12-06T09:28:18.643Z,101247.63
2022-12-06T09:30:46.160Z,101237.38
2022-12-06T09:33:13.651Z,101253.50
2022-12-06T09:35:42.555Z,101229.75
2022-12-06T09:38:10.124Z,101242.72
2022-12-06T09:40:42.998Z,101242.81
2022-12-06T09:43:14.424Z,101249.28
2022-12-06T09:45:46.638Z,101247.56
2022-12-06T09:48:34.308Z,101245.84
2022-12-06T09:51:06.184Z,101242.09
2022-12-06T09:53:36.226Z,101254.66
2022-12-06T09:56:06.307Z,101249.13
2022-12-06T09:58:44.408Z,101255.47
2022-12-06T10:01:14.549Z,101238.81
2022-12-06T10:04:06.222Z,101245.81
2022-12-06T10:06:38.627Z,101238.19
2022-12-06T10:09:28.219Z,101255.53
2022-12-06T10:11:58.479Z,101248.13
2022-12-06T10:14:29.766Z,101245.97
2022-12-06T10:17:00.388Z,101252.38
2022-12-06T10:19:30.586Z,101246.47
2022-12-06T10:22:01.910Z,101255.84
2022-12-06T10:24:33.609Z,101259.44
2022-12-06T10:27:01.706Z,101249.44
2022-12-06T10:29:30.238Z,101267.38
2022-12-06T10:31:58.792Z,101247.66
2022-12-06T10:34:30.441Z,101241.50
2022-12-06T10:37:01.480Z,101231.25
2022-12-06T10:39:29.817Z,101237.19
2022-12-06T10:41:58.976Z,101236.00
2022-12-06T10:44:27.443Z,101232.22
2022-12-06T10:47:04.484Z,101219.41
2022-12-06T10:49:36.048Z,101226.34
2022-12-06T10:52:05.867Z,101241.50
2022-12-06T10:54:34.409Z,101226.56
2022-12-06T10:57:02.953Z,101232.84
2022-12-06T10:59:33.059Z,101225.69
2022-12-06T11:02:01.832Z,101218.94
2022-12-06T11:04:30.305Z,101196.25
2022-12-06T11:06:58.601Z,101203.56
2022-12-06T11:09:30.525Z,101212.41
2022-12-06T11:11:57.964Z,101217.59
2022-12-06T11:14:26.317Z,101188.94
2022-12-06T11:16:55.353Z,101190.16
2022-12-06T11:19:24.708Z,101189.78
2022-12-06T11:21:54.311Z,101189.06
2022-12-06T11:24:22.616Z,101185.81
2022-12-06T11:26:53.188Z,101192.19
2022-12-06T11:29:20.785Z,101198.66
2022-12-06T11:31:48.901Z,101205.22
2022-12-06T11:34:17.478Z,101198.91
2022-12-06T11:36:45.036Z,101215.34
2022-12-06T11:39:12.653Z,101194.66
2022-12-06T11:41:40.122Z,101191.78
2022-12-06T11:44:09.967Z,101203.53
2022-12-06T11:46:37.531Z,101192.41
2022-12-06T11:49:06.914Z,101193.88
2022-12-06T11:51:34.385Z,101196.09
2022-12-06T11:54:03.353Z,101191.13
2022-12-06T11:56:31.525Z,101176.97
2022-12-06T11:59:05.015Z,101179.97
2022-12-06T12:01:40.771Z,101171.84
2022-12-06T12:04:25.083Z,101180.13
2022-12-06T12:06:52.582Z,101182.44
2022-12-06T12:09:20.486Z,101183.84
2022-12-06T12:11:54.219Z,101187.75
2022-12-06T12:14:25.536Z,101183.38
2022-12-06T12:16:55.416Z,101171.38
2022-12-06T12:19:26.488Z,101183.44
2022-12-06T12:21:54.679Z,101168.13
2022-12-06T12:25:03.339Z,101167.13
2022-12-06T12:27:32.451Z,101154.31
2022-12-06T12:30:18.288Z,101151.47
2022-12-06T12:32:47.592Z,101143.41
2022-12-06T12:35:25.229Z,101159.44
2022-12-06T12:37:53.723Z,101144.84
2022-12-06T12:40:22.888Z,101152.31
2022-12-06T12:42:56.993Z,101158.53
2022-12-06T12:45:26.781Z,101171.25
2022-12-06T12:48:02.020Z,101164.94
2022-12-06T12:50:29.960Z,101154.31
2022-12-06T12:52:57.611Z,101154.53
2022-12-06T12:55:26.280Z,101149.69
2022-12-06T12:57:54.526Z,101151.53
2022-12-06T13:00:22.702Z,101147.63
2022-12-06T13:02:51.664Z,101140.94
2022-12-06T13:05:39.592Z,101147.75
2022-12-06T13:08:12.781Z,101138.31
2022-12-06T13:10:40.535Z,101146.34
2022-12-06T13:13:13.143Z,101140.34
2022-12-06T13:15:42.653Z,101137.50
2022-12-06T13:18:11.835Z,101144.88
2022-12-06T13:20:40.656Z,101149.06
2022-12-06T13:23:09.962Z,101145.81
2022-12-06T13:25:37.462Z,101140.88
2022-12-06T13:28:06.134Z,101125.69
2022-12-06T13:30:34.420Z,101139.88
2022-12-06T13:33:02.205Z,101121.44
2022-12-06T13:35:32.056Z,101140.03
2022-12-06T13:38:01.748Z,101143.31
2022-12-06T13:40:37.662Z,101150.31
2022-12-06T13:43:06.075Z,101137.09
2022-12-06T13:45:41.413Z,101132.31
2022-12-06T13:48:27.768Z,101130.72
2022-12-06T13:50:55.691Z,101128.75
2022-12-06T13:53:24.902Z,101115.97
2022-12-06T13:56:01.091Z,101122.00
2022-12-06T13:58:55.435Z,101130.78
2022-12-06T14:01:40.052Z,101118.31
2022-12-06T14:06:56.554Z,101126.66
2022-12-06T14:09:26.527Z,101115.00
2022-12-06T14:11:54.333Z,101117.09
2022-12-06T14:14:22.514Z,101121.25
2022-12-06T14:16:50.439Z,101120.03
2022-12-06T14:19:19.012Z,101106.69
2022-12-06T14:21:52.421Z,101114.63
2022-12-06T14:24:31.539Z,101117.47
2022-12-06T14:27:06.250Z,101124.88
2022-12-06T14:29:34.007Z,101117.47
2022-12-06T14:32:01.557Z,101114.63
2022-12-06T14:34:29.704Z,101103.69
2022-12-06T14:36:57.324Z,101103.47
2022-12-06T14:39:25.391Z,101090.88
2022-12-06T14:42:12.178Z,101092.44
2022-12-06T14:44:39.714Z,101098.59
2022-12-06T14:47:07.444Z,101095.53
2022-12-06T14:49:53.178Z,101098.56
2022-12-06T14:52:21.982Z,101083.06
2022-12-06T14:54:50.050Z,101084.16
2022-12-06T14:57:23.728Z,101080.31
2022-12-06T15:02:47.941Z,101094.78
2022-12-06T15:05:34.732Z,101082.47
2022-12-06T15:08:17.196Z,101088.84
2022-12-06T15:10:54.056Z,101080.72
2022-12-06T15:13:22.980Z,101088.16
2022-12-06T15:15:53.415Z,101072.41
2022-12-06T15:18:25.500Z,101075.50
2022-12-06T15:20:53.475Z,101088.25
2022-12-06T15:23:30.968Z,101073.47
2022-12-06T15:25:58.488Z,101072.34
2022-12-06T15:28:27.392Z,101074.88
2022-12-06T15:30:54.917Z,101078.88
2022-12-06T15:33:22.963Z,101078.09
2022-12-06T15:35:50.525Z,101068.66
2022-12-06T15:38:18.085Z,101076.75
2022-12-06T15:40:46.165Z,101068.13
2022-12-06T15:43:21.215Z,101069.84
2022-12-06T15:45:50.038Z,101058.28
2022-12-06T15:48:17.491Z,101052.31
2022-12-06T15:50:44.984Z,101052.56
2022-12-06T15:53:13.551Z,101056.34
2022-12-06T15:55:40.994Z,101056.16
2022-12-06T15:58:08.459Z,101062.25
2022-12-06T16:00:35.899Z,101060.97
2022-12-06T16:03:04.820Z,101072.50
2022-12-06T16:05:32.416Z,101056.03
2022-12-06T16:07:59.892Z,101066.09
2022-12-06T16:10:48.812Z,101065.53
2022-12-06T16:13:24.101Z,101055.66
2022-12-06T16:15:52.283Z,101062.16
2022-12-06T16:18:21.340Z,101051.44
2022-12-06T16:20:48.836Z,101033.66
2022-12-06T16:24:04.563Z,101050.81
2022-12-06T16:26:22.214Z,101037.81
2022-12-06T16:28:49.680Z,101046.22
2022-12-06T16:31:17.227Z,101050.78
2022-12-06T16:33:46.083Z,101044.22
2022-12-06T16:36:14.034Z,101042.34
2022-12-06T16:38:41.518Z,101048.66
2022-12-06T16:41:10.003Z,101046.84
2022-12-06T16:43:37.548Z,101041.94
2022-12-06T16:46:11.720Z,101039.38
2022-12-06T16:48:39.237Z,101046.41
2022-12-06T16:51:08.155Z,101027.63
2022-12-06T16:53:35.674Z,101027.06
2022-12-06T16:56:03.143Z,101037.44
2022-12-06T16:58:30.581Z,101041.03
2022-12-06T17:00:58.127Z,101034.94
2022-12-06T17:03:25.689Z,101031.69
2022-12-06T17:05:53.197Z,101040.16
2022-12-06T17:08:22.461Z,101020.00
2022-12-06T17:11:10.071Z,101033.78
2022-12-06T17:13:37.596Z,101037.50
2022-12-06T17:16:07.459Z,101037.25
2022-12-06T17:18:34.971Z,101011.63
2022-12-06T17:21:06.308Z,101013.09
2022-12-06T17:23:35.212Z,101023.34
2022-12-06T17:26:02.736Z,101020.72
2022-12-06T17:28:30.244Z,100999.34
2022-12-06T17:30:57.798Z,101003.47
2022-12-06T17:33:25.262Z,100997.97
2022-12-06T17:35:52.745Z,101002.81
2022-12-06T17:38:20.223Z,100991.91
2022-12-06T17:40:49.031Z,101000.19
2022-12-06T17:43:15.516Z,100981.50
2022-12-06T17:45:43.084Z,100976.78
2022-12-06T17:48:10.598Z,100989.69
2022-12-06T17:50:38.164Z,100984.16
2022-12-06T17:53:05.704Z,100979.75
2022-12-06T17:55:33.293Z,100994.75
2022-12-06T17:58:02.560Z,100985.47
2022-12-06T18:00:30.042Z,100975.03
2022-12-06T18:02:57.656Z,100987.50
2022-12-06T18:05:25.157Z,100989.38
2022-12-06T18:07:52.700Z,100982.13
2022-12-06T18:10:20.214Z,100975.59
2022-12-06T18:12:47.732Z,100986.34
2022-12-06T18:15:30.649Z,100973.38
2022-12-06T18:17:58.188Z,100983.31
2022-12-06T18:20:25.674Z,100968.97
2022-12-06T18:22:53.206Z,100982.63
2022-12-06T18:25:20.748Z,100976.41
2022-12-06T18:27:48.995Z,100973.84
2022-12-06T18:30:18.096Z,100968.00
2022-12-06T18:32:45.597Z,100967.44
2022-12-06T18:35:13.141Z,100984.69
2022-12-06T18:37:41.014Z,100968.75
2022-12-06T18:40:08.951Z,100975.06
2022-12-06T18:42:37.237Z,100974.81
2022-12-06T18:45:05.449Z,100976.81
2022-12-06T18:47:34.431Z,100966.81
2022-12-06T18:50:01.961Z,100952.97
2022-12-06T18:52:29.513Z,100964.94
2022-12-06T18:54:57.044Z,100963.88
2022-12-06T18:57:30.529Z,100971.34
2022-12-06T18:59:59.884Z,100950.13
2022-12-06T19:02:27.747Z,100965.94
2022-12-06T19:04:56.775Z,100952.91
2022-12-06T19:07:25.190Z,100953.59
2022-12-06T19:09:52.824Z,100948.13
2022-12-06T19:12:20.366Z,100961.94
2022-12-06T19:14:47.904Z,100962.94
2022-12-06T19:17:15.359Z,100947.78
2022-12-06T19:19:42.940Z,100956.06
2022-12-06T19:22:11.840Z,100959.63
2022-12-06T19:24:39.308Z,100948.59
2022-12-06T19:27:06.787Z,100947.72
2022-12-06T19:29:35.644Z,100942.66
2022-12-06T19:32:03.438Z,100943.56
2022-12-06T19:34:30.966Z,100957.00
2022-12-06T19:36:58.495Z,100946.38
2022-12-06T19:39:27.815Z,100956.13
2022-12-06T19:42:12.669Z,100963.00
2022-12-06T19:44:40.218Z,100951.41
2022-12-06T19:47:07.721Z,100955.44
2022-12-06T19:49:35.174Z,100964.72
2022-12-06T19:52:02.748Z,100951.94
2022-12-06T19:54:32.382Z,100979.31
2022-12-06T19:57:00.546Z,100974.06
2022-12-06T19:59:29.419Z,100958.78
2022-12-06T20:01:58.376Z,100940.13
2022-12-06T20:04:26.892Z,100951.75
2022-12-06T20:06:54.665Z,100951.72
2022-12-06T20:09:22.748Z,100942.81
2022-12-06T20:12:03.729Z,100954.22
2022-12-06T20:14:34.472Z,100956.41
2022-12-06T20:17:02.296Z,100945.97
2022-12-06T20:19:29.859Z,100945.56
2022-12-06T20:21:57.479Z,100965.97
2022-12-06T20:24:24.980Z,100959.75
2022-12-06T20:26:54.494Z,100967.56
2022-12-06T20:29:22.292Z,100975.91
2022-12-06T20:31:51.044Z,100966.59
2022-12-06T20:34:18.613Z,100959.66
2022-12-06T20:36:46.233Z,100965.63
2022-12-06T20:39:18.260Z,100954.34
2022-12-06T20:41:45.753Z,100966.09
2022-12-06T20:44:14.621Z,100947.41
2022-12-06T20:46:42.320Z,100945.97
2022-12-06T20:49:09.869Z,100948.03
2022-12-06T20:51:37.516Z,100945.03
2022-12-06T20:54:05.694Z,100950.16
2022-12-06T20:56:34.726Z,100957.31
2022-12-06T20:59:02.457Z,100947.94
2022-12-06T21:01:32.076Z,100955.91
2022-12-06T21:04:00.137Z,100944.34
2022-12-06T21:06:27.728Z,100959.34
2022-12-06T21:08:55.285Z,100955.28
2022-12-06T21:11:24.334Z,100941.25
2022-12-06T21:13:53.337Z,100964.25
2022-12-06T21:16:21.678Z,100954.22
2022-12-06T21:18:54.530Z,100945.88
2022-12-06T21:21:22.531Z,100956.69
2022-12-06T21:23:50.152Z,100949.13
2022-12-06T21:26:17.601Z,100961.50
2022-12-06T21:28:45.061Z,100938.25
2022-12-06T21:31:12.558Z,100937.31
2022-12-06T21:33:40.088Z,100942.63
2022-12-06T21:36:09.472Z,100942.81
2022-12-06T21:38:36.978Z,100936.44
2022-12-06T21:41:04.938Z,100954.38
2022-12-06T21:43:32.512Z,100940.84
2022-12-06T21:46:03.346Z,100940.84
2022-12-06T21:48:30.861Z,100936.91
2022-12-06T21:51:00.849Z,100948.84
2022-12-06T21:53:29.719Z,100946.22
2022-12-06T21:55:57.234Z,100935.16
2022-12-06T21:58:24.716Z,100929.00
2022-12-06T22:00:52.308Z,100936.34
2022-12-06T22:03:23.114Z,100936.41
2022-12-06T22:05:51.024Z,100924.41
2022-12-06T22:08:18.582Z,100930.66
2022-12-06T22:10:47.539Z,100930.69
2022-12-06T22:13:15.085Z,100939.53
2022-12-06T22:15:42.667Z,100943.88
2022-12-06T22:18:10.217Z,100946.72
2022-12-06T22:20:37.687Z,100954.16
2022-12-06T22:23:05.225Z,100958.72
2022-12-06T22:25:32.745Z,100959.97
2022-12-06T22:28:01.640Z,100963.66
2022-12-06T22:30:29.087Z,100958.72
2022-12-06T22:32:56.944Z,100957.00
2022-12-06T22:35:24.420Z,100959.91
2022-12-06T22:37:51.920Z,100958.00
2022-12-06T22:40:19.458Z,100962.47
2022-12-06T22:42:46.965Z,100961.22
2022-12-06T22:45:15.891Z,100954.91
2022-12-06T22:47:43.363Z,100958.47
2022-12-06T22:50:10.900Z,100953.47
2022-12-06T22:52:38.397Z,100955.81
2022-12-06T22:55:06.125Z,100958.25
2022-12-06T22:57:33.697Z,100956.34
2022-12-06T23:00:01.389Z,100952.56
2022-12-06T23:02:30.460Z,100950.38
2022-12-06T23:04:57.981Z,100958.53
2022-12-06T23:07:25.459Z,100951.25
2022-12-06T23:09:52.925Z,100954.00
2022-12-06T23:12:20.354Z,100955.22
2022-12-06T23:14:47.869Z,100940.66
2022-12-06T23:17:15.336Z,100947.25
2022-12-06T23:19:44.210Z,100952.56
2022-12-06T23:22:11.684Z,100940.59
2022-12-06T23:24:39.149Z,100945.44
2022-12-06T23:27:06.680Z,100944.97
2022-12-06T23:29:34.204Z,100933.84
2022-12-06T23:32:01.765Z,100941.94
2022-12-06T23:34:30.036Z,100940.41
2022-12-06T23:36:58.880Z,100944.13
2022-12-06T23:39:26.476Z,100938.03
2022-12-06T23:41:54.009Z,100937.41
2022-12-06T23:44:21.608Z,100945.31
2022-12-06T23:46:49.149Z,100932.56
2022-12-06T23:49:18.072Z,100926.53
2022-12-06T23:51:45.836Z,100933.13
2022-12-06T23:54:15.119Z,100937.09
2022-12-06T23:56:42.896Z,100928.69
2022-12-06T23:59:11.563Z,100934.78
